Lambert St Louis International Airport
KSTL : now visible

Airfield :











YOU CAN JOIN US ON...

 
LOGIN :

Register | Disclaimer

   EN    FR    IT 

 









Legend :    VFR   Marginal VFR   IFR   Intensive IFR   Very Intensive IFR
Visi :
Ceiling :
>= 8 km
>= 3000ft
5 to 8 km
1000 to 3000 ft
1500m to 5 km
500 to 1000 ft
800 to 1500m
200 to 500 ft
< 800m
< 200 ft
Symbols :   Thunderstorms  Fog  Heavy snow  Heavy precipitations  Wind > 20 kt






- Airport Elevation : 618 ft
- IATA code : STL


KSTL - Lambert St Louis International

CURRENT METAR :
  • 110351Z 17006KT 10SM OVC008 22/19 A2995 RMK AO2 SLP126 T02170194

EXPIRED METARs :
  • 110306Z 13007KT 10SM BKN008 OVC150 22/20 A2994 RMK AO2 T02170200
  • 110251Z 13007KT 10SM SCT007 BKN200 22/20 A2994 RMK AO2 SLP126 60006 T02170200 55034
  • 110219Z 18013G24KT 10SM FEW006 22/20 A2993 RMK AO2 T02170200
  • 110151Z 15012KT 10SM SCT085 BKN120 BKN200 22/19 A2992 RMK AO2 RAE09 TSE01 SLP120 OCNL LTGICCC DSNT E-SE CB DSNT E-SE MOV E P0001 T02170194

TAF KSTL
Valid from the 11 at 03:00 until the 12 at 06:00 UTC


110309Z 1103/1206 15009KT P6SM SCT007 BKN150
TEMPO 1103/1106 BKN007
FM111500 27005KT P6SM SCT020 BKN120
FM120000 VRB04KT P6SM BKN250
KZKC FIR / North America



MET'MAP, your aeronautical weather chart ! - Copyright ORBIFLY December 2007 - Disclaimer

ORBIFLY MET'MAP TEAM :

Programming & Development : Alexandra Zaïnal
Concept & original design : Baudouin d'Aumeries
Assistance for programming : Marc-Olivier Méhu
Technical & hardware support : Manuel Goepfert

Contact : metmap@orbifly.com




SOURCES & CREDITS :

   NOAA       Earth
Advisory